Time;durP1;ratioP1;P1;durP2;ratioP2;P2;SDS_P1;SDS_P2;PMS_P1;PMS_P2;Temp;Humidity;BMP_temperature;BMP_pressure;BME280_temperature;BME280_humidity;BME280_pressure;Samples;Min_cycle;Max_cycle;Signal;HPM_P1;HPM_P2
2022/05/09 00:01:56;;;;;;;0.00;0.00;;;;;;;;;;4993576;28;100619;-75
2022/05/09 00:04:23;;;;;;;0.00;0.00;;;;;;;;;;5012388;28;98370;-75
2022/05/09 00:06:50;;;;;;;0.00;0.00;;;;;;;;;;5012614;28;99615;-76
2022/05/09 00:09:16;;;;;;;0.00;0.00;;;;;;;;;;5012116;28;99604;-75
2022/05/09 00:11:43;;;;;;;0.00;0.00;;;;;;;;;;5015002;28;97648;-76
2022/05/09 00:14:10;;;;;;;0.00;0.00;;;;;;;;;;5000555;28;98676;-75
2022/05/09 00:16:37;;;;;;;0.00;0.00;;;;;;;;;;5015671;28;98479;-75
2022/05/09 00:19:05;;;;;;;0.00;0.00;;;;;;;;;;5015412;28;99475;-75
2022/05/09 00:21:32;;;;;;;0.00;0.00;;;;;;;;;;5015286;28;99722;-75
2022/05/09 00:24:00;;;;;;;0.00;0.00;;;;;;;;;;5015604;28;98418;-75
2022/05/09 00:26:31;;;;;;;0.00;0.00;;;;;;;;;;5015568;28;99371;-75
2022/05/09 00:28:59;;;;;;;0.00;0.00;;;;;;;;;;5014880;28;99557;-73
2022/05/09 00:31:25;;;;;;;0.00;0.00;;;;;;;;;;5015226;28;98422;-74
2022/05/09 00:33:52;;;;;;;0.00;0.00;;;;;;;;;;5018103;28;98624;-73
2022/05/09 00:36:18;;;;;;;0.00;0.00;;;;;;;;;;5015728;28;97565;-76
2022/05/09 00:38:44;;;;;;;0.00;0.00;;;;;;;;;;5015251;28;98379;-76
2022/05/09 00:43:58;;;;;;;0.00;0.00;;;;;;;;;;5014860;28;99142;-76
2022/05/09 00:46:25;;;;;;;0.00;0.00;;;;;;;;;;5015263;28;100042;-75
2022/05/09 00:48:52;;;;;;;0.00;0.00;;;;;;;;;;5014860;28;99867;-76
2022/05/09 00:51:20;;;;;;;0.03;0.03;;;;;;;;;;5015531;28;98302;-76
2022/05/09 00:53:48;;;;;;;0.00;0.00;;;;;;;;;;4997286;28;100179;-75
2022/05/09 00:56:22;;;;;;;0.10;0.10;;;;;;;;;;5017988;28;99930;-74
2022/05/09 00:58:50;;;;;;;0.00;0.00;;;;;;;;;;5015157;28;98864;-75
2022/05/09 01:01:17;;;;;;;0.00;0.00;;;;;;;;;;5015226;28;99868;-75
2022/05/09 01:03:47;;;;;;;0.00;0.00;;;;;;;;;;5014581;28;98473;-75
2022/05/09 01:06:13;;;;;;;0.00;0.00;;;;;;;;;;5014928;28;99190;-76
2022/05/09 01:08:40;;;;;;;0.00;0.00;;;;;;;;;;5007741;28;100434;-75
2022/05/09 01:11:11;;;;;;;0.00;0.00;;;;;;;;;;5015107;28;98456;-75
2022/05/09 01:13:42;;;;;;;0.00;0.00;;;;;;;;;;5014904;28;99381;-75
2022/05/09 01:16:09;;;;;;;0.00;0.00;;;;;;;;;;5014389;28;99983;-75
2022/05/09 01:18:36;;;;;;;0.00;0.00;;;;;;;;;;5018284;28;98502;-75
2022/05/09 01:21:21;;;;;;;0.00;0.00;;;;;;;;;;5014065;28;99826;-75
2022/05/09 01:23:47;;;;;;;0.00;0.00;;;;;;;;;;5013914;28;98482;-75
2022/05/09 01:26:16;;;;;;;0.00;0.00;;;;;;;;;;5015057;28;98717;-75
2022/05/09 01:28:43;;;;;;;0.00;0.00;;;;;;;;;;5014417;28;98995;-75
2022/05/09 01:31:11;;;;;;;0.00;0.00;;;;;;;;;;5014770;28;98386;-75
2022/05/09 01:33:40;;;;;;;0.00;0.00;;;;;;;;;;5013832;28;99895;-75
2022/05/09 01:36:12;;;;;;;0.00;0.00;;;;;;;;;;5011538;28;99429;-75
2022/05/09 01:38:39;;;;;;;0.00;0.00;;;;;;;;;;5017333;28;98332;-76
2022/05/09 01:41:05;;;;;;;0.00;0.00;;;;;;;;;;5019833;28;99553;-75
2022/05/09 01:43:34;;;;;;;0.00;0.00;;;;;;;;;;5015410;28;98413;-75
2022/05/09 01:46:01;;;;;;;0.00;0.00;;;;;;;;;;5013862;28;99920;-75
2022/05/09 01:51:13;;;;;;;0.00;0.00;;;;;;;;;;5014949;28;97671;-75
2022/05/09 01:53:39;;;;;;;0.00;0.00;;;;;;;;;;5014298;28;98390;-75
2022/05/09 01:56:06;;;;;;;0.00;0.00;;;;;;;;;;5013822;28;99270;-75
2022/05/09 01:58:33;;;;;;;0.00;0.00;;;;;;;;;;5013528;28;99055;-75
2022/05/09 02:01:00;;;;;;;0.00;0.00;;;;;;;;;;5014101;28;100157;-75
2022/05/09 02:03:27;;;;;;;0.00;0.00;;;;;;;;;;5016440;28;100244;-75
2022/05/09 02:05:56;;;;;;;0.00;0.00;;;;;;;;;;4996341;28;100968;-76
2022/05/09 02:08:22;;;;;;;0.00;0.00;;;;;;;;;;5013495;28;99951;-75
2022/05/09 02:10:49;;;;;;;0.00;0.00;;;;;;;;;;5014086;28;98335;-75
2022/05/09 02:13:15;;;;;;;0.00;0.00;;;;;;;;;;5013581;28;99717;-75
2022/05/09 02:15:42;;;;;;;0.00;0.00;;;;;;;;;;5014038;28;99102;-75
2022/05/09 02:18:08;;;;;;;0.00;0.00;;;;;;;;;;4996185;28;98483;-75
2022/05/09 02:20:36;;;;;;;0.00;0.00;;;;;;;;;;5013971;28;99241;-75
2022/05/09 02:23:02;;;;;;;0.00;0.00;;;;;;;;;;5013016;28;101241;-75
2022/05/09 02:25:33;;;;;;;0.00;0.00;;;;;;;;;;5017078;28;98409;-75
2022/05/09 02:28:01;;;;;;;0.00;0.00;;;;;;;;;;5013160;28;99927;-75
2022/05/09 02:30:27;;;;;;;0.00;0.00;;;;;;;;;;5013879;28;98476;-75
2022/05/09 02:32:54;;;;;;;0.00;0.00;;;;;;;;;;5013744;28;99576;-75
2022/05/09 02:35:21;;;;;;;0.00;0.00;;;;;;;;;;5013219;28;100125;-74
2022/05/09 02:37:48;;;;;;;0.00;0.00;;;;;;;;;;5013724;28;98458;-75
2022/05/09 02:40:15;;;;;;;0.10;0.10;;;;;;;;;;5013573;28;99427;-75
2022/05/09 02:42:41;;;;;;;0.00;0.00;;;;;;;;;;5013050;28;99597;-74
2022/05/09 02:45:08;;;;;;;0.10;0.10;;;;;;;;;;5016819;28;99152;-75
2022/05/09 02:47:34;;;;;;;0.00;0.00;;;;;;;;;;5012633;28;100500;-75
2022/05/09 02:50:01;;;;;;;0.00;0.00;;;;;;;;;;5013411;28;98245;-74
2022/05/09 02:52:28;;;;;;;0.00;0.00;;;;;;;;;;5013366;28;99356;-75
2022/05/09 02:54:54;;;;;;;0.00;0.00;;;;;;;;;;5012463;28;99616;-74
2022/05/09 02:57:20;;;;;;;0.00;0.00;;;;;;;;;;5012058;28;98422;-75
2022/05/09 02:59:47;;;;;;;0.00;0.00;;;;;;;;;;5013222;28;99485;-74
2022/05/09 03:02:13;;;;;;;0.00;0.00;;;;;;;;;;5012134;28;100569;-75
2022/05/09 03:04:39;;;;;;;0.00;0.00;;;;;;;;;;5013789;28;97696;-75
2022/05/09 03:07:12;;;;;;;0.00;0.00;;;;;;;;;;5016137;28;98536;-74
2022/05/09 03:09:40;;;;;;;0.00;0.00;;;;;;;;;;4977208;28;99644;-75
2022/05/09 03:12:10;;;;;;;0.00;0.00;;;;;;;;;;5012705;28;99200;-75
2022/05/09 03:14:36;;;;;;;0.00;0.00;;;;;;;;;;5009803;28;99898;-74
2022/05/09 03:17:03;;;;;;;0.00;0.00;;;;;;;;;;5013260;28;98333;-74
2022/05/09 03:19:30;;;;;;;0.00;0.00;;;;;;;;;;5013148;28;99491;-74
2022/05/09 03:21:56;;;;;;;0.00;0.00;;;;;;;;;;5012346;28;99621;-74
2022/05/09 03:24:23;;;;;;;0.00;0.00;;;;;;;;;;5013172;28;98233;-74
2022/05/09 03:26:49;;;;;;;0.00;0.00;;;;;;;;;;5012781;28;99402;-74
2022/05/09 03:29:18;;;;;;;0.00;0.00;;;;;;;;;;5016260;28;99086;-74
2022/05/09 03:31:48;;;;;;;0.00;0.00;;;;;;;;;;5012857;28;98803;-74
2022/05/09 03:34:15;;;;;;;0.00;0.00;;;;;;;;;;5012377;28;99751;-74
2022/05/09 03:36:41;;;;;;;0.00;0.00;;;;;;;;;;5012461;28;99120;-74
2022/05/09 03:39:08;;;;;;;0.00;0.00;;;;;;;;;;5012772;28;100186;-75
2022/05/09 03:41:36;;;;;;;0.00;0.00;;;;;;;;;;5012179;28;100106;-74
2022/05/09 03:44:03;;;;;;;0.00;0.00;;;;;;;;;;5012577;28;98551;-74
2022/05/09 03:46:36;;;;;;;0.00;0.00;;;;;;;;;;5014588;28;98902;-74
2022/05/09 03:49:04;;;;;;;0.00;0.00;;;;;;;;;;5017037;28;99211;-74
2022/05/09 03:51:30;;;;;;;0.10;0.10;;;;;;;;;;5017133;28;98349;-73
2022/05/09 03:53:57;;;;;;;0.00;0.00;;;;;;;;;;5016202;28;98031;-74
2022/05/09 03:56:23;;;;;;;0.00;0.00;;;;;;;;;;5016047;28;98317;-75
2022/05/09 03:58:50;;;;;;;0.00;0.00;;;;;;;;;;5015843;28;99767;-74
2022/05/09 04:01:16;;;;;;;0.00;0.00;;;;;;;;;;5014933;28;100103;-75
2022/05/09 04:03:43;;;;;;;0.00;0.00;;;;;;;;;;5014925;28;98370;-75
2022/05/09 04:06:09;;;;;;;0.00;0.00;;;;;;;;;;5015753;28;99313;-75
2022/05/09 04:08:36;;;;;;;0.00;0.00;;;;;;;;;;5015510;28;99853;-74
2022/05/09 04:11:02;;;;;;;0.00;0.00;;;;;;;;;;5015799;28;98413;-75
2022/05/09 04:13:28;;;;;;;0.00;0.00;;;;;;;;;;5018769;28;99896;-74
2022/05/09 04:18:41;;;;;;;0.00;0.00;;;;;;;;;;4998352;28;101232;-75
2022/05/09 04:21:08;;;;;;;0.00;0.00;;;;;;;;;;5015311;28;99742;-75
2022/05/09 04:23:34;;;;;;;0.00;0.00;;;;;;;;;;5015637;28;98457;-73
2022/05/09 04:26:01;;;;;;;0.00;0.00;;;;;;;;;;5015267;28;99253;-74
2022/05/09 04:28:28;;;;;;;0.00;0.00;;;;;;;;;;5015145;28;100038;-74
2022/05/09 04:30:56;;;;;;;0.00;0.00;;;;;;;;;;5015373;28;98312;-75
2022/05/09 04:33:27;;;;;;;0.00;0.00;;;;;;;;;;5018426;28;99068;-75
2022/05/09 04:35:54;;;;;;;0.00;0.00;;;;;;;;;;5015546;28;98363;-75
2022/05/09 04:38:22;;;;;;;0.00;0.00;;;;;;;;;;5015419;28;99366;-75
2022/05/09 04:40:52;;;;;;;0.00;0.00;;;;;;;;;;5015091;28;99653;-75
2022/05/09 04:43:19;;;;;;;0.00;0.00;;;;;;;;;;5015615;28;99281;-76
2022/05/09 04:45:46;;;;;;;0.00;0.00;;;;;;;;;;5015545;28;98421;-77
2022/05/09 04:48:12;;;;;;;0.00;0.00;;;;;;;;;;5014858;28;99671;-75
2022/05/09 04:50:39;;;;;;;0.00;0.00;;;;;;;;;;5014816;28;99313;-75
2022/05/09 04:53:05;;;;;;;0.00;0.00;;;;;;;;;;5013881;28;102582;-75
2022/05/09 04:55:33;;;;;;;0.00;0.00;;;;;;;;;;5018182;28;99509;-74
2022/05/09 04:58:01;;;;;;;0.00;0.00;;;;;;;;;;5013577;28;99576;-75
2022/05/09 05:00:28;;;;;;;0.00;0.00;;;;;;;;;;5014778;28;100243;-75
2022/05/09 05:02:55;;;;;;;0.00;0.00;;;;;;;;;;5014781;28;98410;-76
2022/05/09 05:05:23;;;;;;;0.00;0.00;;;;;;;;;;5015176;28;99335;-74
2022/05/09 05:07:51;;;;;;;0.00;0.00;;;;;;;;;;5014684;28;99823;-74
2022/05/09 05:10:23;;;;;;;0.00;0.00;;;;;;;;;;5014482;28;98431;-76
2022/05/09 05:12:49;;;;;;;1.05;1.00;;;;;;;;;;5014856;28;99453;-75
2022/05/09 05:15:16;;;;;;;0.00;0.00;;;;;;;;;;5013973;28;101323;-75
2022/05/09 05:17:42;;;;;;;0.00;0.00;;;;;;;;;;5018180;28;98433;-76
2022/05/09 05:20:12;;;;;;;0.00;0.00;;;;;;;;;;5014569;28;99572;-74
2022/05/09 05:22:41;;;;;;;0.00;0.00;;;;;;;;;;5015032;28;98274;-74
2022/05/09 05:25:09;;;;;;;0.00;0.00;;;;;;;;;;5014311;28;99806;-75
2022/05/09 05:27:35;;;;;;;0.20;0.20;;;;;;;;;;5014221;28;99798;-74
2022/05/09 05:30:02;;;;;;;0.00;0.00;;;;;;;;;;5014718;28;98339;-74
2022/05/09 05:32:31;;;;;;;0.00;0.00;;;;;;;;;;5015039;28;99884;-74
2022/05/09 05:34:58;;;;;;;0.00;0.00;;;;;;;;;;5014220;28;99165;-75
2022/05/09 05:37:24;;;;;;;0.00;0.00;;;;;;;;;;5014594;28;98303;-76
2022/05/09 05:39:52;;;;;;;0.00;0.00;;;;;;;;;;5017007;28;99062;-75
2022/05/09 05:42:19;;;;;;;0.00;0.00;;;;;;;;;;5014334;28;98468;-75
2022/05/09 05:44:47;;;;;;;0.20;0.20;;;;;;;;;;5014526;28;98891;-70
2022/05/09 05:47:15;;;;;;;0.43;0.35;;;;;;;;;;5013874;28;99713;-72
2022/05/09 05:49:41;;;;;;;0.05;0.05;;;;;;;;;;5014021;28;98475;-73
2022/05/09 05:52:09;;;;;;;0.00;0.00;;;;;;;;;;5013862;28;98945;-76
2022/05/09 05:54:39;;;;;;;0.00;0.00;;;;;;;;;;5014190;28;100014;-76
2022/05/09 05:57:07;;;;;;;0.00;0.00;;;;;;;;;;5016509;28;97672;-78
2022/05/09 05:59:33;;;;;;;0.00;0.00;;;;;;;;;;4992870;28;98954;-77
2022/05/09 06:01:59;;;;;;;0.00;0.00;;;;;;;;;;4995538;28;100981;-79
2022/05/09 06:04:28;;;;;;;0.00;0.00;;;;;;;;;;4992025;28;99156;-78
2022/05/09 06:06:55;;;;;;;0.00;0.00;;;;;;;;;;4991840;28;99350;-75
2022/05/09 06:09:21;;;;;;;0.00;0.00;;;;;;;;;;4991223;28;98425;-75
2022/05/09 06:11:47;;;;;;;0.00;0.00;;;;;;;;;;4992396;28;99464;-75
2022/05/09 06:14:14;;;;;;;0.13;0.13;;;;;;;;;;4991639;28;100412;-76
2022/05/09 06:16:40;;;;;;;0.00;0.00;;;;;;;;;;4991902;28;98769;-76
2022/05/09 06:19:08;;;;;;;0.00;0.00;;;;;;;;;;4991929;28;99348;-76
2022/05/09 06:21:37;;;;;;;0.00;0.00;;;;;;;;;;4991893;28;99290;-75
2022/05/09 06:24:04;;;;;;;0.10;0.10;;;;;;;;;;4994953;28;98571;-76
2022/05/09 06:26:31;;;;;;;0.00;0.00;;;;;;;;;;4991354;28;99740;-75
2022/05/09 06:28:59;;;;;;;0.10;0.10;;;;;;;;;;4991107;28;99116;-79
2022/05/09 06:31:26;;;;;;;0.00;0.00;;;;;;;;;;5009531;28;99867;-74
2022/05/09 06:33:52;;;;;;;0.00;0.00;;;;;;;;;;5012657;28;99796;-78
2022/05/09 06:36:19;;;;;;;0.00;0.00;;;;;;;;;;5010582;28;98520;-76
2022/05/09 06:38:45;;;;;;;0.00;0.00;;;;;;;;;;5013554;28;99530;-74
2022/05/09 06:41:12;;;;;;;0.05;0.05;;;;;;;;;;5012953;28;100193;-76
2022/05/09 06:43:38;;;;;;;0.00;0.00;;;;;;;;;;5016985;28;98245;-76
2022/05/09 06:46:04;;;;;;;0.00;0.00;;;;;;;;;;5013548;28;98364;-75
2022/05/09 06:48:31;;;;;;;0.00;0.00;;;;;;;;;;5012796;28;98535;-76
2022/05/09 06:51:04;;;;;;;0.00;0.00;;;;;;;;;;5013345;28;98998;-75
2022/05/09 06:53:30;;;;;;;0.00;0.00;;;;;;;;;;5012415;28;100957;-73
2022/05/09 06:56:05;;;;;;;0.00;0.00;;;;;;;;;;4996887;28;98500;-77
2022/05/09 06:58:33;;;;;;;0.00;0.00;;;;;;;;;;5013240;28;99485;-75
2022/05/09 07:00:59;;;;;;;0.00;0.00;;;;;;;;;;5012052;28;100862;-75
2022/05/09 07:03:27;;;;;;;0.00;0.00;;;;;;;;;;5012856;28;99272;-77
2022/05/09 07:05:55;;;;;;;0.10;0.10;;;;;;;;;;5016134;28;99544;-76
2022/05/09 07:08:23;;;;;;;0.00;0.00;;;;;;;;;;5010539;28;98459;-76
2022/05/09 07:10:49;;;;;;;0.00;0.00;;;;;;;;;;5013653;28;99243;-77
2022/05/09 07:13:35;;;;;;;0.10;0.10;;;;;;;;;;5012076;28;99525;-76
2022/05/09 07:16:04;;;;;;;0.10;0.10;;;;;;;;;;5012947;28;98384;-74
2022/05/09 07:18:32;;;;;;;0.00;0.00;;;;;;;;;;4992179;28;103216;-75
2022/05/09 07:20:59;;;;;;;0.10;0.10;;;;;;;;;;5011745;28;99568;-74
2022/05/09 07:23:25;;;;;;;0.22;0.22;;;;;;;;;;5012776;28;98717;-74
2022/05/09 07:25:52;;;;;;;0.00;0.00;;;;;;;;;;5013060;28;99199;-73
2022/05/09 07:28:21;;;;;;;0.10;0.10;;;;;;;;;;5015314;28;99641;-74
2022/05/09 07:30:48;;;;;;;0.00;0.00;;;;;;;;;;5013006;28;99257;-76
2022/05/09 07:33:15;;;;;;;0.00;0.00;;;;;;;;;;5012455;28;99219;-76
2022/05/09 07:35:42;;;;;;;0.00;0.00;;;;;;;;;;5013513;28;97680;-76
2022/05/09 07:38:09;;;;;;;0.00;0.00;;;;;;;;;;5012604;28;99431;-75
2022/05/09 07:40:35;;;;;;;1.95;1.45;;;;;;;;;;5012096;28;99788;-75
2022/05/09 07:43:01;;;;;;;0.00;0.00;;;;;;;;;;5011825;28;99198;-77
2022/05/09 07:45:28;;;;;;;0.00;0.00;;;;;;;;;;5012637;28;100595;-75
2022/05/09 07:47:54;;;;;;;0.30;0.30;;;;;;;;;;5011982;28;100039;-75
2022/05/09 07:50:21;;;;;;;0.00;0.00;;;;;;;;;;5015846;28;98214;-75
2022/05/09 07:52:48;;;;;;;0.05;0.05;;;;;;;;;;5010174;28;99380;-76
2022/05/09 07:55:15;;;;;;;0.10;0.10;;;;;;;;;;5001036;28;98412;-77
2022/05/09 07:57:41;;;;;;;0.10;0.10;;;;;;;;;;5002590;28;99022;-76
2022/05/09 08:00:10;;;;;;;0.00;0.00;;;;;;;;;;5000657;28;98974;-75
2022/05/09 08:02:40;;;;;;;0.08;0.08;;;;;;;;;;5003093;28;98422;-76
2022/05/09 08:05:10;;;;;;;0.08;0.08;;;;;;;;;;4996450;28;99509;-75
2022/05/09 08:07:37;;;;;;;0.00;0.00;;;;;;;;;;4994548;28;100265;-76
2022/05/09 08:10:04;;;;;;;0.00;0.00;;;;;;;;;;4999922;28;98509;-74
2022/05/09 08:12:31;;;;;;;0.08;0.08;;;;;;;;;;5002685;28;99028;-76
2022/05/09 08:14:58;;;;;;;0.10;0.10;;;;;;;;;;5001112;28;98690;-75
2022/05/09 08:17:24;;;;;;;0.30;0.30;;;;;;;;;;5000257;28;99686;-75
2022/05/09 08:19:55;;;;;;;0.03;0.03;;;;;;;;;;4984117;28;101118;-75
2022/05/09 08:22:22;;;;;;;0.10;0.10;;;;;;;;;;4999474;28;98785;-75
2022/05/09 08:24:48;;;;;;;0.13;0.13;;;;;;;;;;5000725;28;99036;-75
2022/05/09 08:27:15;;;;;;;0.10;0.10;;;;;;;;;;5002832;28;99997;-76
2022/05/09 08:29:42;;;;;;;0.10;0.10;;;;;;;;;;4995588;28;98463;-75
2022/05/09 08:32:10;;;;;;;0.20;0.20;;;;;;;;;;4977628;28;99633;-77
2022/05/09 08:34:38;;;;;;;0.10;0.10;;;;;;;;;;5006510;28;99293;-76
2022/05/09 08:37:04;;;;;;;0.10;0.10;;;;;;;;;;4986704;28;101635;-76
2022/05/09 08:39:32;;;;;;;0.15;0.15;;;;;;;;;;5004496;28;99255;-76
2022/05/09 08:42:07;;;;;;;0.10;0.10;;;;;;;;;;5003936;28;98462;-76
2022/05/09 08:44:36;;;;;;;0.05;0.05;;;;;;;;;;5004943;28;99712;-76
2022/05/09 08:47:17;;;;;;;1.45;1.35;;;;;;;;;;5003791;28;99647;-74
2022/05/09 08:50:03;;;;;;;0.10;0.10;;;;;;;;;;5002773;28;97820;-75
2022/05/09 08:52:35;;;;;;;0.10;0.10;;;;;;;;;;5001215;28;98529;-74
2022/05/09 08:55:05;;;;;;;0.10;0.10;;;;;;;;;;4983800;28;99724;-75
2022/05/09 08:57:42;;;;;;;0.10;0.10;;;;;;;;;;5001303;28;99385;-75
2022/05/09 09:00:16;;;;;;;0.20;0.20;;;;;;;;;;5004006;28;99243;-75
2022/05/09 09:02:48;;;;;;;0.28;0.28;;;;;;;;;;5004413;28;98484;-76
2022/05/09 09:05:20;;;;;;;0.08;0.08;;;;;;;;;;5003856;28;98828;-77
2022/05/09 09:07:53;;;;;;;0.20;0.20;;;;;;;;;;4981043;28;99673;-75
2022/05/09 09:10:32;;;;;;;0.10;0.10;;;;;;;;;;5002722;28;99502;-76
2022/05/09 09:13:07;;;;;;;0.10;0.10;;;;;;;;;;4999661;28;99333;-77
2022/05/09 09:15:46;;;;;;;0.10;0.10;;;;;;;;;;5005629;28;98255;-74
2022/05/09 09:18:23;;;;;;;0.10;0.10;;;;;;;;;;4989727;28;98453;-74
2022/05/09 09:20:53;;;;;;;0.35;0.35;;;;;;;;;;5002567;28;99599;-75
2022/05/09 09:23:35;;;;;;;0.20;0.20;;;;;;;;;;5003851;28;99250;-75
2022/05/09 09:26:02;;;;;;;0.10;0.10;;;;;;;;;;4998810;28;100215;-76
2022/05/09 09:28:35;;;;;;;0.10;0.10;;;;;;;;;;5004770;28;99603;-75
2022/05/09 09:31:05;;;;;;;0.10;0.10;;;;;;;;;;4984613;28;98309;-75
2022/05/09 09:33:32;;;;;;;0.10;0.10;;;;;;;;;;5002255;28;99359;-75
2022/05/09 09:36:10;;;;;;;0.10;0.10;;;;;;;;;;5004482;28;99906;-76
2022/05/09 09:38:40;;;;;;;0.00;0.00;;;;;;;;;;4998168;28;98480;-76
2022/05/09 09:41:18;;;;;;;0.10;0.10;;;;;;;;;;5001872;28;99820;-76
2022/05/09 09:43:48;;;;;;;0.82;0.65;;;;;;;;;;4998165;28;98535;-76
2022/05/09 09:46:14;;;;;;;0.10;0.10;;;;;;;;;;5014459;28;99308;-74
2022/05/09 09:48:43;;;;;;;0.10;0.10;;;;;;;;;;5013454;28;99788;-74
2022/05/09 09:51:11;;;;;;;0.10;0.10;;;;;;;;;;5012875;28;98581;-74
2022/05/09 09:53:43;;;;;;;0.10;0.10;;;;;;;;;;5014433;28;99423;-76
2022/05/09 09:56:21;;;;;;;0.10;0.10;;;;;;;;;;5013940;28;99357;-79
2022/05/09 09:58:52;;;;;;;0.10;0.10;;;;;;;;;;5014111;28;98330;-77
2022/05/09 10:01:23;;;;;;;0.10;0.10;;;;;;;;;;5010161;28;98839;-77
2022/05/09 10:03:49;;;;;;;;;;;;;;;;;;4986211;28;102429;-79
2022/05/09 10:06:21;;;;;;;0.10;0.10;;;;;;;;;;5007898;28;127511;-78
2022/05/09 10:09:16;;;;;;;0.20;0.20;;;;;;;;;;5000713;28;99485;-78
2022/05/09 10:11:45;;;;;;;0.10;0.10;;;;;;;;;;4972821;28;98498;-80
2022/05/09 10:14:48;;;;;;;0.10;0.10;;;;;;;;;;5001569;28;100129;-81
2022/05/09 10:21:15;;;;;;;0.10;0.10;;;;;;;;;;4984436;28;98448;-79
2022/05/09 10:26:34;;;;;;;1.38;0.20;;;;;;;;;;5001115;28;99132;-80
2022/05/09 10:29:22;;;;;;;0.10;0.10;;;;;;;;;;5005935;28;98663;-79
2022/05/09 10:31:57;;;;;;;0.10;0.10;;;;;;;;;;4972344;28;101729;-81
2022/05/09 10:35:01;;;;;;;0.17;0.17;;;;;;;;;;4984905;28;97754;-83
2022/05/09 10:37:40;;;;;;;0.10;0.10;;;;;;;;;;4967002;28;100925;-81
2022/05/09 10:40:13;;;;;;;12.85;0.95;;;;;;;;;;5002861;28;99629;-77
2022/05/09 10:42:42;;;;;;;0.10;0.10;;;;;;;;;;5002557;28;99159;-81
2022/05/09 10:45:28;;;;;;;0.17;0.17;;;;;;;;;;5002198;28;101041;-78
2022/05/09 10:47:58;;;;;;;0.17;0.17;;;;;;;;;;4997108;28;99269;-78
2022/05/09 10:50:32;;;;;;;0.10;0.10;;;;;;;;;;4997313;28;98553;-79
2022/05/09 10:53:06;;;;;;;0.35;0.35;;;;;;;;;;4999849;28;100046;-81
2022/05/09 10:55:33;;;;;;;1.48;0.20;;;;;;;;;;5001558;28;98253;-81
2022/05/09 10:58:02;;;;;;;0.20;0.20;;;;;;;;;;5000822;28;99282;-80
2022/05/09 11:00:30;;;;;;;0.10;0.10;;;;;;;;;;4971680;28;98496;-76
2022/05/09 11:03:03;;;;;;;0.10;0.10;;;;;;;;;;4986593;28;98525;-78
2022/05/09 11:05:35;;;;;;;0.95;0.45;;;;;;;;;;5000459;28;99249;-76
2022/05/09 11:08:24;;;;;;;0.10;0.10;;;;;;;;;;4948473;28;100021;-79
2022/05/09 11:11:11;;;;;;;0.10;0.10;;;;;;;;;;4979744;28;98718;-79
2022/05/09 11:13:58;;;;;;;0.10;0.10;;;;;;;;;;4999352;28;98766;-79
2022/05/09 11:16:36;;;;;;;0.20;0.20;;;;;;;;;;5005071;28;98535;-80
2022/05/09 11:19:24;;;;;;;0.10;0.10;;;;;;;;;;5004552;28;99066;-79
2022/05/09 11:21:55;;;;;;;0.10;0.10;;;;;;;;;;5004127;28;99082;-81
2022/05/09 11:24:48;;;;;;;0.30;0.30;;;;;;;;;;4996016;28;98479;-79
2022/05/09 11:27:32;;;;;;;0.10;0.10;;;;;;;;;;4981929;28;100470;-82
2022/05/09 11:30:13;;;;;;;0.55;0.52;;;;;;;;;;4999957;28;100969;-81
2022/05/09 11:32:44;;;;;;;0.10;0.10;;;;;;;;;;4996699;28;98387;-80
2022/05/09 11:35:10;;;;;;;0.10;0.10;;;;;;;;;;4971106;28;99118;-80
2022/05/09 11:37:55;;;;;;;0.15;0.15;;;;;;;;;;5005452;28;99063;-81
2022/05/09 11:40:33;;;;;;;0.13;0.13;;;;;;;;;;5002144;28;99365;-80
2022/05/09 11:46:02;;;;;;;0.10;0.10;;;;;;;;;;5000777;28;98488;-80
2022/05/09 11:48:34;;;;;;;0.10;0.10;;;;;;;;;;4998829;28;98899;-80
2022/05/09 11:51:23;;;;;;;0.10;0.10;;;;;;;;;;4999827;28;100764;-81
2022/05/09 11:54:10;;;;;;;0.10;0.10;;;;;;;;;;4997729;28;97880;-82
2022/05/09 11:56:38;;;;;;;0.10;0.10;;;;;;;;;;5001218;28;99194;-82
2022/05/09 11:59:08;;;;;;;0.10;0.10;;;;;;;;;;4981754;28;99200;-81
2022/05/09 12:01:53;;;;;;;0.10;0.10;;;;;;;;;;5004692;28;99128;-79
2022/05/09 12:04:28;;;;;;;0.10;0.10;;;;;;;;;;4971170;28;99495;-81
2022/05/09 12:06:56;;;;;;;0.10;0.10;;;;;;;;;;4972730;28;98532;-78
2022/05/09 12:09:41;;;;;;;0.10;0.10;;;;;;;;;;4976605;28;99586;-79
2022/05/09 12:12:07;;;;;;;0.25;0.25;;;;;;;;;;4979738;28;100797;-80
2022/05/09 12:14:38;;;;;;;0.13;0.13;;;;;;;;;;4980041;28;98326;-78
2022/05/09 12:17:16;;;;;;;0.10;0.10;;;;;;;;;;4976090;28;99836;-81
2022/05/09 12:19:43;;;;;;;0.13;0.13;;;;;;;;;;4976166;28;98952;-79
2022/05/09 12:22:18;;;;;;;0.10;0.10;;;;;;;;;;4976235;28;98223;-80
2022/05/09 12:25:24;;;;;;;0.10;0.10;;;;;;;;;;4975778;28;98941;-82
2022/05/09 12:28:14;;;;;;;0.10;0.10;;;;;;;;;;4975944;28;99099;-82
2022/05/09 12:30:44;;;;;;;0.10;0.10;;;;;;;;;;4974208;28;101017;-80
2022/05/09 12:37:27;;;;;;;0.10;0.10;;;;;;;;;;4907614;28;118814;-81
2022/05/09 12:39:57;;;;;;;0.10;0.10;;;;;;;;;;4974067;28;102082;-81
2022/05/09 12:42:39;;;;;;;0.10;0.10;;;;;;;;;;4957549;28;102154;-79
2022/05/09 12:45:14;;;;;;;0.10;0.10;;;;;;;;;;4975093;28;98430;-78
2022/05/09 12:47:41;;;;;;;0.10;0.10;;;;;;;;;;4976390;28;98796;-81
2022/05/09 12:50:13;;;;;;;0.40;0.40;;;;;;;;;;4961459;28;99053;-80
2022/05/09 12:52:42;;;;;;;0.10;0.10;;;;;;;;;;4974488;28;100314;-79
2022/05/09 12:57:53;;;;;;;0.10;0.10;;;;;;;;;;4975303;28;98381;-79
2022/05/09 13:00:25;;;;;;;0.32;0.32;;;;;;;;;;4975569;28;98905;-77
2022/05/09 13:03:12;;;;;;;0.98;0.52;;;;;;;;;;4980262;28;100715;-77
2022/05/09 13:05:42;;;;;;;0.10;0.10;;;;;;;;;;5006411;28;98317;-79
2022/05/09 13:08:10;;;;;;;0.10;0.10;;;;;;;;;;4980527;28;99260;-78
2022/05/09 13:10:51;;;;;;;0.10;0.10;;;;;;;;;;5001416;28;99349;-79
2022/05/09 13:13:36;;;;;;;0.10;0.10;;;;;;;;;;5009568;28;97670;-77
2022/05/09 13:16:02;;;;;;;0.10;0.10;;;;;;;;;;4999764;28;99691;-79
2022/05/09 13:18:29;;;;;;;0.30;0.30;;;;;;;;;;5005828;28;99327;-78
2022/05/09 13:20:58;;;;;;;0.10;0.10;;;;;;;;;;5001926;28;99282;-77
2022/05/09 13:23:27;;;;;;;0.10;0.10;;;;;;;;;;4998285;28;100718;-79
2022/05/09 13:25:56;;;;;;;0.10;0.10;;;;;;;;;;4979980;28;98516;-79
2022/05/09 13:28:22;;;;;;;0.10;0.10;;;;;;;;;;5001561;28;98980;-77
2022/05/09 13:30:50;;;;;;;0.73;0.65;;;;;;;;;;5002714;28;101874;-77
2022/05/09 13:33:18;;;;;;;0.10;0.10;;;;;;;;;;5007391;28;99031;-77
2022/05/09 13:35:49;;;;;;;0.30;0.30;;;;;;;;;;5003668;28;100046;-77
2022/05/09 13:38:18;;;;;;;0.10;0.10;;;;;;;;;;5004334;28;97764;-79
2022/05/09 13:40:46;;;;;;;0.10;0.10;;;;;;;;;;5004422;28;98922;-75
2022/05/09 13:43:15;;;;;;;0.35;0.35;;;;;;;;;;5002395;28;100343;-77
2022/05/09 13:45:43;;;;;;;0.15;0.15;;;;;;;;;;5003751;28;99214;-76
2022/05/09 13:48:16;;;;;;;0.15;0.15;;;;;;;;;;4998895;28;99422;-76
2022/05/09 13:50:44;;;;;;;0.10;0.10;;;;;;;;;;5004442;28;99220;-76
2022/05/09 13:53:12;;;;;;;0.15;0.15;;;;;;;;;;5002167;28;98362;-75
2022/05/09 13:55:42;;;;;;;0.10;0.10;;;;;;;;;;5008449;28;99790;-76
2022/05/09 13:58:11;;;;;;;0.10;0.10;;;;;;;;;;4980277;28;98659;-76
2022/05/09 14:00:39;;;;;;;0.10;0.10;;;;;;;;;;4998011;28;99680;-77
2022/05/09 14:03:16;;;;;;;0.20;0.20;;;;;;;;;;4998075;28;98724;-74
2022/05/09 14:05:44;;;;;;;0.10;0.10;;;;;;;;;;4994568;28;98949;-76
2022/05/09 14:08:13;;;;;;;0.30;0.30;;;;;;;;;;5004402;28;98665;-76
2022/05/09 14:10:42;;;;;;;0.10;0.10;;;;;;;;;;5004276;28;100690;-78
2022/05/09 14:13:27;;;;;;;0.10;0.10;;;;;;;;;;5001776;28;98488;-76
2022/05/09 14:15:57;;;;;;;0.10;0.10;;;;;;;;;;4995406;28;99730;-75
2022/05/09 14:18:25;;;;;;;;;;;;;;;;;;5000989;28;100422;-76
2022/05/09 14:20:57;;;;;;;0.10;0.10;;;;;;;;;;5002042;28;128697;-73
2022/05/09 14:23:25;;;;;;;0.10;0.10;;;;;;;;;;5003336;28;98751;-73
2022/05/09 14:31:39;;;;;;;0.10;0.10;;;;;;;;;;5002814;28;99679;-77
2022/05/09 14:34:35;;;;;;;0.30;0.30;;;;;;;;;;5002291;28;99308;-75
2022/05/09 14:37:16;;;;;;;0.32;0.32;;;;;;;;;;4983447;28;99365;-75
2022/05/09 14:39:48;;;;;;;0.30;0.30;;;;;;;;;;5003233;28;99716;-75
2022/05/09 14:42:17;;;;;;;0.10;0.10;;;;;;;;;;5004694;28;98952;-76
2022/05/09 14:44:50;;;;;;;0.20;0.20;;;;;;;;;;5001055;28;99869;-77
2022/05/09 14:47:21;;;;;;;0.10;0.10;;;;;;;;;;5001402;28;99552;-80
2022/05/09 14:50:07;;;;;;;0.10;0.10;;;;;;;;;;4998905;28;99358;-79
2022/05/09 14:52:42;;;;;;;0.10;0.10;;;;;;;;;;5000892;28;99782;-76
2022/05/09 14:57:59;;;;;;;0.10;0.10;;;;;;;;;;4999065;28;99580;-77
2022/05/09 15:00:28;;;;;;;0.10;0.10;;;;;;;;;;4997563;28;99184;-73
2022/05/09 15:02:56;;;;;;;0.10;0.10;;;;;;;;;;4996896;28;99188;-74
2022/05/09 15:05:22;;;;;;;0.20;0.20;;;;;;;;;;5007259;28;100290;-75
2022/05/09 15:07:49;;;;;;;0.35;0.35;;;;;;;;;;5000261;28;98381;-78
2022/05/09 15:10:15;;;;;;;0.15;0.15;;;;;;;;;;5002848;28;98925;-75
2022/05/09 15:12:43;;;;;;;0.17;0.17;;;;;;;;;;5002535;28;99787;-74
2022/05/09 15:15:11;;;;;;;0.10;0.10;;;;;;;;;;5001872;28;98593;-80
2022/05/09 15:17:39;;;;;;;1.25;1.05;;;;;;;;;;4999483;28;99063;-75
2022/05/09 15:20:06;;;;;;;0.10;0.10;;;;;;;;;;5004939;28;98704;-80
2022/05/09 15:22:33;;;;;;;0.20;0.20;;;;;;;;;;5000635;28;98495;-79
2022/05/09 15:24:59;;;;;;;0.20;0.20;;;;;;;;;;5003938;28;98933;-77
2022/05/09 15:27:26;;;;;;;0.10;0.10;;;;;;;;;;5000051;28;99123;-75
2022/05/09 15:29:53;;;;;;;0.10;0.10;;;;;;;;;;4997719;28;100493;-75
2022/05/09 15:32:22;;;;;;;0.20;0.20;;;;;;;;;;4998330;28;99023;-77